sensor_id;sensor_type;location;lat;lon;timestamp;P1;durP1;ratioP1;P2;durP2;ratioP2
60502;SDS011;51448;51.660;5.824;2023-04-06T00:01:57;21.13;;;15.35;;
60502;SDS011;51448;51.660;5.824;2023-04-06T00:04:25;20.17;;;15.35;;
60502;SDS011;51448;51.660;5.824;2023-04-06T00:06:52;20.42;;;14.63;;
60502;SDS011;51448;51.660;5.824;2023-04-06T00:09:20;19.73;;;14.02;;
60502;SDS011;51448;51.660;5.824;2023-04-06T00:11:48;19.73;;;15.35;;
60502;SDS011;51448;51.660;5.824;2023-04-06T00:14:17;18.13;;;15.38;;
60502;SDS011;51448;51.660;5.824;2023-04-06T00:16:45;19.45;;;14.70;;
60502;SDS011;51448;51.660;5.824;2023-04-06T00:19:13;18.45;;;14.15;;
60502;SDS011;51448;51.660;5.824;2023-04-06T00:21:41;19.05;;;15.52;;
60502;SDS011;51448;51.660;5.824;2023-04-06T00:24:09;18.70;;;15.55;;
60502;SDS011;51448;51.660;5.824;2023-04-06T00:26:36;18.90;;;14.35;;
60502;SDS011;51448;51.660;5.824;2023-04-06T00:29:04;19.15;;;14.27;;
60502;SDS011;51448;51.660;5.824;2023-04-06T00:31:32;19.65;;;15.70;;
60502;SDS011;51448;51.660;5.824;2023-04-06T00:33:59;18.95;;;14.85;;
60502;SDS011;51448;51.660;5.824;2023-04-06T00:36:27;21.58;;;15.50;;
60502;SDS011;51448;51.660;5.824;2023-04-06T00:38:55;20.20;;;15.75;;
60502;SDS011;51448;51.660;5.824;2023-04-06T00:41:22;19.55;;;15.40;;
60502;SDS011;51448;51.660;5.824;2023-04-06T00:43:51;19.83;;;15.05;;
60502;SDS011;51448;51.660;5.824;2023-04-06T00:46:19;23.65;;;16.50;;
60502;SDS011;51448;51.660;5.824;2023-04-06T00:48:47;20.80;;;15.55;;
60502;SDS011;51448;51.660;5.824;2023-04-06T00:51:14;19.80;;;16.05;;
60502;SDS011;51448;51.660;5.824;2023-04-06T00:53:42;24.23;;;16.60;;
60502;SDS011;51448;51.660;5.824;2023-04-06T00:56:12;21.48;;;15.48;;
60502;SDS011;51448;51.660;5.824;2023-04-06T00:58:49;20.13;;;15.02;;
60502;SDS011;51448;51.660;5.824;2023-04-06T01:01:17;20.83;;;15.38;;
60502;SDS011;51448;51.660;5.824;2023-04-06T01:03:47;21.08;;;16.10;;
60502;SDS011;51448;51.660;5.824;2023-04-06T01:06:18;23.40;;;17.27;;
60502;SDS011;51448;51.660;5.824;2023-04-06T01:08:54;22.02;;;16.27;;
60502;SDS011;51448;51.660;5.824;2023-04-06T01:11:24;21.35;;;16.05;;
60502;SDS011;51448;51.660;5.824;2023-04-06T01:13:54;23.42;;;15.75;;
60502;SDS011;51448;51.660;5.824;2023-04-06T01:16:28;19.98;;;15.75;;
60502;SDS011;51448;51.660;5.824;2023-04-06T01:19:11;19.27;;;15.27;;
60502;SDS011;51448;51.660;5.824;2023-04-06T01:21:47;18.98;;;14.75;;
60502;SDS011;51448;51.660;5.824;2023-04-06T01:24:29;21.15;;;15.27;;
60502;SDS011;51448;51.660;5.824;2023-04-06T01:27:10;19.92;;;17.10;;
60502;SDS011;51448;51.660;5.824;2023-04-06T01:30:05;19.60;;;15.43;;
60502;SDS011;51448;51.660;5.824;2023-04-06T01:32:50;20.83;;;17.15;;
60502;SDS011;51448;51.660;5.824;2023-04-06T01:35:28;23.30;;;16.85;;
60502;SDS011;51448;51.660;5.824;2023-04-06T01:38:09;22.50;;;17.50;;
60502;SDS011;51448;51.660;5.824;2023-04-06T01:40:37;22.02;;;17.27;;
60502;SDS011;51448;51.660;5.824;2023-04-06T01:43:05;24.33;;;16.95;;
60502;SDS011;51448;51.660;5.824;2023-04-06T01:45:42;21.95;;;16.65;;
60502;SDS011;51448;51.660;5.824;2023-04-06T01:48:18;23.27;;;17.77;;
60502;SDS011;51448;51.660;5.824;2023-04-06T01:50:45;25.10;;;17.77;;
60502;SDS011;51448;51.660;5.824;2023-04-06T01:53:19;24.52;;;17.65;;
60502;SDS011;51448;51.660;5.824;2023-04-06T01:55:47;25.60;;;17.60;;
60502;SDS011;51448;51.660;5.824;2023-04-06T01:58:21;24.17;;;17.55;;
60502;SDS011;51448;51.660;5.824;2023-04-06T02:00:48;23.42;;;16.80;;
60502;SDS011;51448;51.660;5.824;2023-04-06T02:03:17;22.55;;;17.77;;
60502;SDS011;51448;51.660;5.824;2023-04-06T02:05:46;23.23;;;17.20;;
60502;SDS011;51448;51.660;5.824;2023-04-06T02:08:27;28.85;;;18.17;;
60502;SDS011;51448;51.660;5.824;2023-04-06T02:10:55;23.65;;;16.88;;
60502;SDS011;51448;51.660;5.824;2023-04-06T02:13:30;23.88;;;16.95;;
60502;SDS011;51448;51.660;5.824;2023-04-06T02:15:58;23.05;;;18.00;;
60502;SDS011;51448;51.660;5.824;2023-04-06T02:18:29;26.85;;;18.67;;
60502;SDS011;51448;51.660;5.824;2023-04-06T02:20:58;23.17;;;16.67;;
60502;SDS011;51448;51.660;5.824;2023-04-06T02:23:25;23.05;;;16.92;;
60502;SDS011;51448;51.660;5.824;2023-04-06T02:25:53;23.40;;;17.52;;
60502;SDS011;51448;51.660;5.824;2023-04-06T02:28:21;22.23;;;16.65;;
60502;SDS011;51448;51.660;5.824;2023-04-06T02:30:49;22.33;;;16.80;;
60502;SDS011;51448;51.660;5.824;2023-04-06T02:33:18;21.38;;;16.55;;
60502;SDS011;51448;51.660;5.824;2023-04-06T02:35:47;24.90;;;17.48;;
60502;SDS011;51448;51.660;5.824;2023-04-06T02:38:15;24.88;;;17.42;;
60502;SDS011;51448;51.660;5.824;2023-04-06T02:40:42;23.67;;;17.27;;
60502;SDS011;51448;51.660;5.824;2023-04-06T02:43:24;23.13;;;16.95;;
60502;SDS011;51448;51.660;5.824;2023-04-06T02:46:01;27.30;;;17.13;;
60502;SDS011;51448;51.660;5.824;2023-04-06T02:48:32;23.83;;;15.88;;
60502;SDS011;51448;51.660;5.824;2023-04-06T02:51:03;22.00;;;15.93;;
60502;SDS011;51448;51.660;5.824;2023-04-06T02:53:31;25.42;;;17.88;;
60502;SDS011;51448;51.660;5.824;2023-04-06T02:55:58;27.63;;;18.08;;
60502;SDS011;51448;51.660;5.824;2023-04-06T02:58:35;24.52;;;17.67;;
60502;SDS011;51448;51.660;5.824;2023-04-06T03:01:04;23.90;;;17.20;;
60502;SDS011;51448;51.660;5.824;2023-04-06T03:03:31;24.65;;;16.83;;
60502;SDS011;51448;51.660;5.824;2023-04-06T03:05:59;25.55;;;17.50;;
60502;SDS011;51448;51.660;5.824;2023-04-06T03:08:30;23.92;;;16.75;;
60502;SDS011;51448;51.660;5.824;2023-04-06T03:10:57;29.05;;;17.63;;
60502;SDS011;51448;51.660;5.824;2023-04-06T03:13:33;21.63;;;16.33;;
60502;SDS011;51448;51.660;5.824;2023-04-06T03:16:01;27.77;;;16.73;;
60502;SDS011;51448;51.660;5.824;2023-04-06T03:18:29;22.55;;;17.27;;
60502;SDS011;51448;51.660;5.824;2023-04-06T03:20:57;24.63;;;18.13;;
60502;SDS011;51448;51.660;5.824;2023-04-06T03:23:31;23.15;;;16.70;;
60502;SDS011;51448;51.660;5.824;2023-04-06T03:26:01;28.27;;;17.30;;
60502;SDS011;51448;51.660;5.824;2023-04-06T03:28:29;24.77;;;17.13;;
60502;SDS011;51448;51.660;5.824;2023-04-06T03:31:01;22.42;;;16.23;;
60502;SDS011;51448;51.660;5.824;2023-04-06T03:33:43;23.83;;;17.33;;
60502;SDS011;51448;51.660;5.824;2023-04-06T03:36:18;26.88;;;17.05;;
60502;SDS011;51448;51.660;5.824;2023-04-06T03:38:46;24.67;;;16.88;;
60502;SDS011;51448;51.660;5.824;2023-04-06T03:41:14;30.10;;;16.92;;
60502;SDS011;51448;51.660;5.824;2023-04-06T03:43:48;26.33;;;17.63;;
60502;SDS011;51448;51.660;5.824;2023-04-06T03:46:17;26.73;;;16.42;;
60502;SDS011;51448;51.660;5.824;2023-04-06T03:48:48;22.70;;;17.07;;
60502;SDS011;51448;51.660;5.824;2023-04-06T03:51:18;20.58;;;15.90;;
60502;SDS011;51448;51.660;5.824;2023-04-06T03:53:47;22.83;;;17.13;;
60502;SDS011;51448;51.660;5.824;2023-04-06T03:56:15;25.05;;;17.65;;
60502;SDS011;51448;51.660;5.824;2023-04-06T03:58:42;23.67;;;16.60;;
60502;SDS011;51448;51.660;5.824;2023-04-06T04:01:12;23.02;;;16.80;;
60502;SDS011;51448;51.660;5.824;2023-04-06T04:03:40;23.92;;;16.63;;
60502;SDS011;51448;51.660;5.824;2023-04-06T04:06:08;20.33;;;16.95;;
60502;SDS011;51448;51.660;5.824;2023-04-06T04:08:35;23.88;;;17.13;;
60502;SDS011;51448;51.660;5.824;2023-04-06T04:11:03;23.38;;;17.75;;
60502;SDS011;51448;51.660;5.824;2023-04-06T04:13:31;24.67;;;17.85;;
60502;SDS011;51448;51.660;5.824;2023-04-06T04:15:59;23.85;;;17.00;;
60502;SDS011;51448;51.660;5.824;2023-04-06T04:18:27;22.50;;;17.25;;
60502;SDS011;51448;51.660;5.824;2023-04-06T04:20:55;27.17;;;17.15;;
60502;SDS011;51448;51.660;5.824;2023-04-06T04:23:23;28.45;;;18.10;;
60502;SDS011;51448;51.660;5.824;2023-04-06T04:25:51;26.13;;;16.77;;
60502;SDS011;51448;51.660;5.824;2023-04-06T04:28:19;23.88;;;17.50;;
60502;SDS011;51448;51.660;5.824;2023-04-06T04:30:47;21.52;;;17.98;;
60502;SDS011;51448;51.660;5.824;2023-04-06T04:33:15;23.05;;;16.77;;
60502;SDS011;51448;51.660;5.824;2023-04-06T04:35:44;23.80;;;17.75;;
60502;SDS011;51448;51.660;5.824;2023-04-06T04:38:16;23.67;;;17.08;;
60502;SDS011;51448;51.660;5.824;2023-04-06T04:40:49;24.10;;;16.52;;
60502;SDS011;51448;51.660;5.824;2023-04-06T04:43:17;23.27;;;16.98;;
60502;SDS011;51448;51.660;5.824;2023-04-06T04:45:45;27.83;;;18.00;;
60502;SDS011;51448;51.660;5.824;2023-04-06T04:48:35;28.13;;;18.33;;
60502;SDS011;51448;51.660;5.824;2023-04-06T04:51:05;23.45;;;17.55;;
60502;SDS011;51448;51.660;5.824;2023-04-06T04:56:29;27.80;;;18.37;;
60502;SDS011;51448;51.660;5.824;2023-04-06T04:59:06;24.23;;;18.42;;
60502;SDS011;51448;51.660;5.824;2023-04-06T05:01:38;25.92;;;18.98;;
60502;SDS011;51448;51.660;5.824;2023-04-06T05:04:22;29.10;;;20.20;;
60502;SDS011;51448;51.660;5.824;2023-04-06T05:07:03;24.48;;;18.73;;
60502;SDS011;51448;51.660;5.824;2023-04-06T05:09:37;28.52;;;19.55;;
60502;SDS011;51448;51.660;5.824;2023-04-06T05:12:06;28.23;;;19.42;;
60502;SDS011;51448;51.660;5.824;2023-04-06T05:14:40;29.45;;;19.15;;
60502;SDS011;51448;51.660;5.824;2023-04-06T05:17:13;30.15;;;20.45;;
60502;SDS011;51448;51.660;5.824;2023-04-06T05:19:41;26.63;;;19.08;;
60502;SDS011;51448;51.660;5.824;2023-04-06T05:22:10;31.02;;;19.80;;
60502;SDS011;51448;51.660;5.824;2023-04-06T05:24:41;25.20;;;18.08;;
60502;SDS011;51448;51.660;5.824;2023-04-06T05:27:10;29.67;;;20.27;;
60502;SDS011;51448;51.660;5.824;2023-04-06T05:29:38;29.15;;;19.65;;
60502;SDS011;51448;51.660;5.824;2023-04-06T05:32:06;29.13;;;20.42;;
60502;SDS011;51448;51.660;5.824;2023-04-06T05:34:35;28.30;;;19.20;;
60502;SDS011;51448;51.660;5.824;2023-04-06T05:37:04;28.05;;;21.35;;
60502;SDS011;51448;51.660;5.824;2023-04-06T05:39:32;26.73;;;20.13;;
60502;SDS011;51448;51.660;5.824;2023-04-06T05:42:02;27.35;;;20.30;;
60502;SDS011;51448;51.660;5.824;2023-04-06T05:44:47;27.00;;;20.52;;
60502;SDS011;51448;51.660;5.824;2023-04-06T05:47:16;28.20;;;20.42;;
60502;SDS011;51448;51.660;5.824;2023-04-06T05:49:48;26.35;;;20.10;;
60502;SDS011;51448;51.660;5.824;2023-04-06T05:52:24;28.95;;;20.48;;
60502;SDS011;51448;51.660;5.824;2023-04-06T05:54:53;29.77;;;21.17;;
60502;SDS011;51448;51.660;5.824;2023-04-06T05:57:21;32.28;;;21.23;;
60502;SDS011;51448;51.660;5.824;2023-04-06T05:59:50;33.38;;;21.63;;
60502;SDS011;51448;51.660;5.824;2023-04-06T06:02:19;36.20;;;22.73;;
60502;SDS011;51448;51.660;5.824;2023-04-06T06:04:50;33.63;;;22.50;;
60502;SDS011;51448;51.660;5.824;2023-04-06T06:07:19;28.65;;;21.13;;
60502;SDS011;51448;51.660;5.824;2023-04-06T06:09:58;29.55;;;21.33;;
60502;SDS011;51448;51.660;5.824;2023-04-06T06:12:31;31.40;;;21.23;;
60502;SDS011;51448;51.660;5.824;2023-04-06T06:14:59;28.58;;;19.63;;
60502;SDS011;51448;51.660;5.824;2023-04-06T06:17:29;27.75;;;20.15;;
60502;SDS011;51448;51.660;5.824;2023-04-06T06:19:57;30.20;;;20.73;;
60502;SDS011;51448;51.660;5.824;2023-04-06T06:22:27;27.67;;;20.00;;
60502;SDS011;51448;51.660;5.824;2023-04-06T06:24:54;29.90;;;20.33;;
60502;SDS011;51448;51.660;5.824;2023-04-06T06:27:23;32.47;;;20.23;;
60502;SDS011;51448;51.660;5.824;2023-04-06T06:29:52;29.52;;;19.05;;
60502;SDS011;51448;51.660;5.824;2023-04-06T06:32:20;25.70;;;19.15;;
60502;SDS011;51448;51.660;5.824;2023-04-06T06:34:50;26.80;;;18.57;;
60502;SDS011;51448;51.660;5.824;2023-04-06T06:37:18;26.88;;;17.75;;
60502;SDS011;51448;51.660;5.824;2023-04-06T06:39:47;25.50;;;17.42;;
60502;SDS011;51448;51.660;5.824;2023-04-06T06:42:15;27.02;;;18.70;;
60502;SDS011;51448;51.660;5.824;2023-04-06T06:44:48;27.08;;;18.02;;
60502;SDS011;51448;51.660;5.824;2023-04-06T06:47:15;27.13;;;17.83;;
60502;SDS011;51448;51.660;5.824;2023-04-06T06:49:44;24.48;;;18.33;;
60502;SDS011;51448;51.660;5.824;2023-04-06T06:52:11;27.17;;;17.83;;
60502;SDS011;51448;51.660;5.824;2023-04-06T06:54:39;26.17;;;18.17;;
60502;SDS011;51448;51.660;5.824;2023-04-06T06:57:06;27.17;;;17.58;;
60502;SDS011;51448;51.660;5.824;2023-04-06T06:59:34;25.80;;;18.00;;
60502;SDS011;51448;51.660;5.824;2023-04-06T07:02:02;24.85;;;18.00;;
60502;SDS011;51448;51.660;5.824;2023-04-06T07:04:30;25.80;;;18.10;;
60502;SDS011;51448;51.660;5.824;2023-04-06T07:06:58;26.48;;;17.55;;
60502;SDS011;51448;51.660;5.824;2023-04-06T07:09:26;24.58;;;18.42;;
60502;SDS011;51448;51.660;5.824;2023-04-06T07:11:56;24.27;;;16.30;;
60502;SDS011;51448;51.660;5.824;2023-04-06T07:14:31;27.27;;;18.40;;
60502;SDS011;51448;51.660;5.824;2023-04-06T07:16:59;26.05;;;18.58;;
60502;SDS011;51448;51.660;5.824;2023-04-06T07:19:27;25.48;;;17.70;;
60502;SDS011;51448;51.660;5.824;2023-04-06T07:21:54;27.17;;;16.70;;
60502;SDS011;51448;51.660;5.824;2023-04-06T07:24:23;24.88;;;17.45;;
60502;SDS011;51448;51.660;5.824;2023-04-06T07:26:51;27.67;;;16.80;;
60502;SDS011;51448;51.660;5.824;2023-04-06T07:29:19;24.52;;;17.00;;
60502;SDS011;51448;51.660;5.824;2023-04-06T07:31:47;23.45;;;16.73;;
60502;SDS011;51448;51.660;5.824;2023-04-06T07:34:16;22.92;;;16.23;;
60502;SDS011;51448;51.660;5.824;2023-04-06T07:36:44;22.63;;;16.25;;
60502;SDS011;51448;51.660;5.824;2023-04-06T07:39:12;25.48;;;16.13;;
60502;SDS011;51448;51.660;5.824;2023-04-06T07:41:40;23.20;;;16.27;;
60502;SDS011;51448;51.660;5.824;2023-04-06T07:44:08;24.23;;;15.95;;
60502;SDS011;51448;51.660;5.824;2023-04-06T07:46:37;23.05;;;15.85;;
60502;SDS011;51448;51.660;5.824;2023-04-06T07:49:05;22.85;;;16.60;;
60502;SDS011;51448;51.660;5.824;2023-04-06T07:51:38;23.42;;;16.40;;
60502;SDS011;51448;51.660;5.824;2023-04-06T07:54:07;26.77;;;16.00;;
60502;SDS011;51448;51.660;5.824;2023-04-06T07:56:35;22.02;;;16.55;;
60502;SDS011;51448;51.660;5.824;2023-04-06T07:59:02;23.60;;;16.15;;
60502;SDS011;51448;51.660;5.824;2023-04-06T08:01:30;25.10;;;17.27;;
60502;SDS011;51448;51.660;5.824;2023-04-06T08:03:58;22.48;;;16.15;;
60502;SDS011;51448;51.660;5.824;2023-04-06T08:06:26;23.35;;;16.63;;
60502;SDS011;51448;51.660;5.824;2023-04-06T08:08:53;21.73;;;16.02;;
60502;SDS011;51448;51.660;5.824;2023-04-06T08:11:21;22.52;;;16.48;;
60502;SDS011;51448;51.660;5.824;2023-04-06T08:13:49;22.27;;;15.75;;
60502;SDS011;51448;51.660;5.824;2023-04-06T08:16:16;22.10;;;15.02;;
60502;SDS011;51448;51.660;5.824;2023-04-06T08:18:44;22.17;;;15.40;;
60502;SDS011;51448;51.660;5.824;2023-04-06T08:21:12;24.25;;;16.00;;
60502;SDS011;51448;51.660;5.824;2023-04-06T08:23:39;21.90;;;15.40;;
60502;SDS011;51448;51.660;5.824;2023-04-06T08:26:07;21.38;;;15.98;;
60502;SDS011;51448;51.660;5.824;2023-04-06T08:28:35;25.20;;;16.98;;
60502;SDS011;51448;51.660;5.824;2023-04-06T08:31:03;24.05;;;15.98;;
60502;SDS011;51448;51.660;5.824;2023-04-06T08:33:33;21.52;;;15.73;;
60502;SDS011;51448;51.660;5.824;2023-04-06T08:36:07;26.10;;;17.45;;
60502;SDS011;51448;51.660;5.824;2023-04-06T08:38:39;20.77;;;15.68;;
60502;SDS011;51448;51.660;5.824;2023-04-06T08:41:10;23.67;;;16.00;;
60502;SDS011;51448;51.660;5.824;2023-04-06T08:43:44;25.77;;;16.83;;
60502;SDS011;51448;51.660;5.824;2023-04-06T08:46:15;25.13;;;16.50;;
60502;SDS011;51448;51.660;5.824;2023-04-06T08:48:44;21.25;;;15.82;;
60502;SDS011;51448;51.660;5.824;2023-04-06T08:51:13;22.70;;;15.68;;
60502;SDS011;51448;51.660;5.824;2023-04-06T08:53:42;22.88;;;16.35;;
60502;SDS011;51448;51.660;5.824;2023-04-06T08:56:10;22.02;;;16.13;;
60502;SDS011;51448;51.660;5.824;2023-04-06T08:58:39;22.55;;;15.25;;
60502;SDS011;51448;51.660;5.824;2023-04-06T09:01:08;23.23;;;16.35;;
60502;SDS011;51448;51.660;5.824;2023-04-06T09:04:14;24.95;;;16.90;;
60502;SDS011;51448;51.660;5.824;2023-04-06T09:06:43;24.13;;;16.92;;
60502;SDS011;51448;51.660;5.824;2023-04-06T09:09:11;26.10;;;16.90;;
60502;SDS011;51448;51.660;5.824;2023-04-06T09:11:45;25.02;;;16.42;;
60502;SDS011;51448;51.660;5.824;2023-04-06T09:14:15;23.88;;;16.70;;
60502;SDS011;51448;51.660;5.824;2023-04-06T09:16:44;25.20;;;16.92;;
60502;SDS011;51448;51.660;5.824;2023-04-06T09:19:13;27.05;;;17.15;;
60502;SDS011;51448;51.660;5.824;2023-04-06T09:21:40;22.42;;;15.80;;
60502;SDS011;51448;51.660;5.824;2023-04-06T09:24:08;24.58;;;16.63;;
60502;SDS011;51448;51.660;5.824;2023-04-06T09:26:44;25.70;;;17.05;;
60502;SDS011;51448;51.660;5.824;2023-04-06T09:29:23;21.88;;;17.17;;
60502;SDS011;51448;51.660;5.824;2023-04-06T09:32:06;22.83;;;16.52;;
60502;SDS011;51448;51.660;5.824;2023-04-06T09:34:38;25.70;;;16.38;;
60502;SDS011;51448;51.660;5.824;2023-04-06T09:37:16;25.98;;;16.05;;
60502;SDS011;51448;51.660;5.824;2023-04-06T09:39:45;22.85;;;15.82;;
60502;SDS011;51448;51.660;5.824;2023-04-06T09:42:23;23.08;;;15.32;;
60502;SDS011;51448;51.660;5.824;2023-04-06T09:44:52;24.23;;;16.17;;
60502;SDS011;51448;51.660;5.824;2023-04-06T09:47:20;27.88;;;17.02;;
60502;SDS011;51448;51.660;5.824;2023-04-06T09:49:59;27.48;;;16.60;;
60502;SDS011;51448;51.660;5.824;2023-04-06T09:52:30;23.33;;;16.25;;
60502;SDS011;51448;51.660;5.824;2023-04-06T09:55:04;23.95;;;15.63;;
60502;SDS011;51448;51.660;5.824;2023-04-06T09:57:37;25.95;;;16.60;;
60502;SDS011;51448;51.660;5.824;2023-04-06T10:00:17;22.00;;;15.07;;
60502;SDS011;51448;51.660;5.824;2023-04-06T10:02:55;23.65;;;16.30;;
60502;SDS011;51448;51.660;5.824;2023-04-06T10:05:52;21.23;;;15.45;;
60502;SDS011;51448;51.660;5.824;2023-04-06T10:08:28;22.70;;;16.05;;
60502;SDS011;51448;51.660;5.824;2023-04-06T10:11:00;23.80;;;15.63;;
60502;SDS011;51448;51.660;5.824;2023-04-06T10:13:29;22.05;;;15.05;;
60502;SDS011;51448;51.660;5.824;2023-04-06T10:15:56;23.38;;;15.88;;
60502;SDS011;51448;51.660;5.824;2023-04-06T10:18:28;22.77;;;15.15;;
60502;SDS011;51448;51.660;5.824;2023-04-06T10:21:06;23.40;;;15.38;;
60502;SDS011;51448;51.660;5.824;2023-04-06T10:23:41;23.15;;;15.95;;
60502;SDS011;51448;51.660;5.824;2023-04-06T10:26:22;22.48;;;15.68;;
60502;SDS011;51448;51.660;5.824;2023-04-06T10:28:50;21.25;;;15.77;;
60502;SDS011;51448;51.660;5.824;2023-04-06T10:31:25;21.10;;;14.30;;
60502;SDS011;51448;51.660;5.824;2023-04-06T10:33:55;20.25;;;15.20;;
60502;SDS011;51448;51.660;5.824;2023-04-06T10:36:33;22.08;;;15.05;;
60502;SDS011;51448;51.660;5.824;2023-04-06T10:39:05;20.83;;;15.38;;
60502;SDS011;51448;51.660;5.824;2023-04-06T10:44:23;23.13;;;14.95;;
60502;SDS011;51448;51.660;5.824;2023-04-06T10:46:52;23.02;;;15.63;;
60502;SDS011;51448;51.660;5.824;2023-04-06T10:49:24;22.83;;;15.50;;
60502;SDS011;51448;51.660;5.824;2023-04-06T10:51:54;19.38;;;14.70;;
60502;SDS011;51448;51.660;5.824;2023-04-06T10:54:23;21.30;;;15.80;;
60502;SDS011;51448;51.660;5.824;2023-04-06T10:56:54;21.67;;;15.83;;
60502;SDS011;51448;51.660;5.824;2023-04-06T10:59:23;21.27;;;15.52;;
60502;SDS011;51448;51.660;5.824;2023-04-06T11:01:52;18.63;;;14.80;;
60502;SDS011;51448;51.660;5.824;2023-04-06T11:04:22;21.60;;;14.30;;
60502;SDS011;51448;51.660;5.824;2023-04-06T11:06:50;21.20;;;15.00;;
60502;SDS011;51448;51.660;5.824;2023-04-06T11:09:28;16.05;;;12.63;;
60502;SDS011;51448;51.660;5.824;2023-04-06T11:11:58;16.42;;;12.25;;
60502;SDS011;51448;51.660;5.824;2023-04-06T11:14:26;17.17;;;11.65;;
60502;SDS011;51448;51.660;5.824;2023-04-06T11:16:54;15.63;;;10.95;;
60502;SDS011;51448;51.660;5.824;2023-04-06T11:19:22;18.55;;;12.05;;
60502;SDS011;51448;51.660;5.824;2023-04-06T11:21:49;15.57;;;11.05;;
60502;SDS011;51448;51.660;5.824;2023-04-06T11:24:18;17.27;;;11.77;;
60502;SDS011;51448;51.660;5.824;2023-04-06T11:26:57;13.77;;;10.15;;
60502;SDS011;51448;51.660;5.824;2023-04-06T11:29:28;13.50;;;8.82;;
60502;SDS011;51448;51.660;5.824;2023-04-06T11:32:05;13.57;;;8.27;;
60502;SDS011;51448;51.660;5.824;2023-04-06T11:34:36;12.10;;;7.88;;
60502;SDS011;51448;51.660;5.824;2023-04-06T11:37:10;11.55;;;7.32;;
60502;SDS011;51448;51.660;5.824;2023-04-06T11:39:40;11.63;;;6.78;;
60502;SDS011;51448;51.660;5.824;2023-04-06T11:42:25;9.43;;;5.70;;
60502;SDS011;51448;51.660;5.824;2023-04-06T11:44:57;9.55;;;5.97;;
60502;SDS011;51448;51.660;5.824;2023-04-06T11:47:29;12.18;;;6.00;;
60502;SDS011;51448;51.660;5.824;2023-04-06T11:50:10;11.57;;;5.85;;
60502;SDS011;51448;51.660;5.824;2023-04-06T11:52:41;9.15;;;5.85;;
60502;SDS011;51448;51.660;5.824;2023-04-06T11:55:10;11.18;;;6.15;;
60502;SDS011;51448;51.660;5.824;2023-04-06T11:57:42;13.13;;;5.95;;
60502;SDS011;51448;51.660;5.824;2023-04-06T12:00:11;10.18;;;6.35;;
60502;SDS011;51448;51.660;5.824;2023-04-06T12:02:40;11.43;;;6.38;;
60502;SDS011;51448;51.660;5.824;2023-04-06T12:05:13;9.65;;;6.68;;
60502;SDS011;51448;51.660;5.824;2023-04-06T12:07:42;10.63;;;6.68;;
60502;SDS011;51448;51.660;5.824;2023-04-06T12:10:10;9.60;;;6.43;;
60502;SDS011;51448;51.660;5.824;2023-04-06T12:12:37;10.00;;;7.03;;
60502;SDS011;51448;51.660;5.824;2023-04-06T12:15:05;10.45;;;6.57;;
60502;SDS011;51448;51.660;5.824;2023-04-06T12:17:34;10.60;;;6.40;;
60502;SDS011;51448;51.660;5.824;2023-04-06T12:20:02;9.90;;;6.47;;
60502;SDS011;51448;51.660;5.824;2023-04-06T12:22:39;9.52;;;6.43;;
60502;SDS011;51448;51.660;5.824;2023-04-06T12:25:07;10.18;;;6.65;;
60502;SDS011;51448;51.660;5.824;2023-04-06T12:27:35;10.45;;;7.03;;
60502;SDS011;51448;51.660;5.824;2023-04-06T12:30:03;10.73;;;6.18;;
60502;SDS011;51448;51.660;5.824;2023-04-06T12:32:31;10.38;;;6.10;;
60502;SDS011;51448;51.660;5.824;2023-04-06T12:34:58;9.75;;;6.22;;
60502;SDS011;51448;51.660;5.824;2023-04-06T12:37:26;9.02;;;6.03;;
60502;SDS011;51448;51.660;5.824;2023-04-06T12:39:54;10.13;;;6.95;;
60502;SDS011;51448;51.660;5.824;2023-04-06T12:42:22;8.80;;;6.15;;
60502;SDS011;51448;51.660;5.824;2023-04-06T12:44:49;10.48;;;6.45;;
60502;SDS011;51448;51.660;5.824;2023-04-06T12:47:17;12.63;;;7.25;;
60502;SDS011;51448;51.660;5.824;2023-04-06T12:49:45;11.40;;;7.18;;
60502;SDS011;51448;51.660;5.824;2023-04-06T12:52:13;10.98;;;7.00;;
60502;SDS011;51448;51.660;5.824;2023-04-06T12:54:41;12.27;;;7.30;;
60502;SDS011;51448;51.660;5.824;2023-04-06T12:57:09;10.68;;;7.57;;
60502;SDS011;51448;51.660;5.824;2023-04-06T12:59:37;10.75;;;8.00;;
60502;SDS011;51448;51.660;5.824;2023-04-06T13:02:04;14.77;;;8.60;;
60502;SDS011;51448;51.660;5.824;2023-04-06T13:04:32;12.10;;;8.07;;
60502;SDS011;51448;51.660;5.824;2023-04-06T13:07:00;13.23;;;9.32;;
60502;SDS011;51448;51.660;5.824;2023-04-06T13:09:28;12.07;;;8.55;;
60502;SDS011;51448;51.660;5.824;2023-04-06T13:11:55;11.30;;;8.32;;
60502;SDS011;51448;51.660;5.824;2023-04-06T13:14:23;13.20;;;9.48;;
60502;SDS011;51448;51.660;5.824;2023-04-06T13:16:51;15.10;;;9.20;;
60502;SDS011;51448;51.660;5.824;2023-04-06T13:19:19;14.25;;;9.43;;
60502;SDS011;51448;51.660;5.824;2023-04-06T13:21:47;17.35;;;9.68;;
60502;SDS011;51448;51.660;5.824;2023-04-06T13:24:14;14.52;;;10.02;;
60502;SDS011;51448;51.660;5.824;2023-04-06T13:26:44;15.27;;;10.18;;
60502;SDS011;51448;51.660;5.824;2023-04-06T13:29:11;12.98;;;8.90;;
60502;SDS011;51448;51.660;5.824;2023-04-06T13:31:39;15.23;;;10.13;;
60502;SDS011;51448;51.660;5.824;2023-04-06T13:34:07;15.32;;;10.02;;
60502;SDS011;51448;51.660;5.824;2023-04-06T13:36:34;15.30;;;9.82;;
60502;SDS011;51448;51.660;5.824;2023-04-06T13:39:02;14.82;;;10.48;;
60502;SDS011;51448;51.660;5.824;2023-04-06T13:41:30;15.20;;;10.15;;
60502;SDS011;51448;51.660;5.824;2023-04-06T13:43:58;14.60;;;9.95;;
60502;SDS011;51448;51.660;5.824;2023-04-06T13:46:26;16.58;;;10.45;;
60502;SDS011;51448;51.660;5.824;2023-04-06T13:48:55;14.07;;;10.57;;
60502;SDS011;51448;51.660;5.824;2023-04-06T13:51:22;14.85;;;10.35;;
60502;SDS011;51448;51.660;5.824;2023-04-06T13:53:50;14.05;;;10.38;;
60502;SDS011;51448;51.660;5.824;2023-04-06T13:56:19;12.13;;;9.23;;
60502;SDS011;51448;51.660;5.824;2023-04-06T13:58:47;13.98;;;9.65;;
60502;SDS011;51448;51.660;5.824;2023-04-06T14:01:14;13.70;;;9.57;;
60502;SDS011;51448;51.660;5.824;2023-04-06T14:03:42;13.07;;;9.50;;
60502;SDS011;51448;51.660;5.824;2023-04-06T14:06:14;14.23;;;10.15;;
60502;SDS011;51448;51.660;5.824;2023-04-06T14:08:57;13.63;;;8.98;;
60502;SDS011;51448;51.660;5.824;2023-04-06T14:11:25;13.02;;;9.32;;
60502;SDS011;51448;51.660;5.824;2023-04-06T14:13:53;12.15;;;9.20;;
60502;SDS011;51448;51.660;5.824;2023-04-06T14:16:24;12.13;;;9.23;;
60502;SDS011;51448;51.660;5.824;2023-04-06T14:18:52;13.48;;;9.18;;
60502;SDS011;51448;51.660;5.824;2023-04-06T14:21:20;14.18;;;9.30;;
60502;SDS011;51448;51.660;5.824;2023-04-06T14:23:47;12.40;;;9.18;;
60502;SDS011;51448;51.660;5.824;2023-04-06T14:26:15;14.02;;;9.02;;
60502;SDS011;51448;51.660;5.824;2023-04-06T14:28:44;11.82;;;8.82;;
60502;SDS011;51448;51.660;5.824;2023-04-06T14:31:13;13.95;;;9.60;;
60502;SDS011;51448;51.660;5.824;2023-04-06T14:33:42;13.88;;;9.13;;
60502;SDS011;51448;51.660;5.824;2023-04-06T14:36:11;12.82;;;9.25;;
60502;SDS011;51448;51.660;5.824;2023-04-06T14:38:38;14.13;;;9.57;;
60502;SDS011;51448;51.660;5.824;2023-04-06T14:41:07;13.30;;;9.77;;
60502;SDS011;51448;51.660;5.824;2023-04-06T14:43:36;14.68;;;10.27;;
60502;SDS011;51448;51.660;5.824;2023-04-06T14:46:03;14.43;;;9.68;;
60502;SDS011;51448;51.660;5.824;2023-04-06T14:48:31;16.30;;;10.52;;